Time;durP1;ratioP1;P1;durP2;ratioP2;P2;SDS_P1;SDS_P2;PMS_P1;PMS_P2;Temp;Humidity;BMP_temperature;BMP_pressure;BME280_temperature;BME280_humidity;BME280_pressure;Samples;Min_cycle;Max_cycle;Signal;HPM_P1;HPM_P2
2022/06/15 00:01:13;;;;;;;0.28;0.28;;;14.80;99.90;;;;;;4897851;29;20129;-67
2022/06/15 00:03:38;;;;;;;1.23;0.40;;;14.70;99.90;;;;;;4897423;29;20052;-67
2022/06/15 00:06:11;;;;;;;0.98;0.90;;;14.70;99.90;;;;;;4896832;29;20053;-67
2022/06/15 00:08:37;;;;;;;0.30;0.30;;;14.70;99.90;;;;;;4898897;29;20060;-67
2022/06/15 00:11:08;;;;;;;0.32;0.32;;;14.70;99.90;;;;;;4898145;29;20041;-67
2022/06/15 00:13:34;;;;;;;0.10;0.10;;;14.60;99.90;;;;;;4896874;29;20052;-66
2022/06/15 00:16:00;;;;;;;0.80;0.30;;;14.60;99.90;;;;;;4905377;29;20048;-67
2022/06/15 00:18:28;;;;;;;2.45;1.38;;;14.60;99.90;;;;;;4898159;29;20068;-67
2022/06/15 00:20:55;;;;;;;1.17;0.43;;;14.50;99.90;;;;;;4896598;29;20143;-67
2022/06/15 00:23:21;;;;;;;0.40;0.40;;;14.50;99.90;;;;;;4897406;29;20052;-67
2022/06/15 00:25:50;;;;;;;1.15;1.05;;;14.50;99.90;;;;;;4898454;29;20048;-67
2022/06/15 00:28:16;;;;;;;0.10;0.10;;;14.50;99.90;;;;;;4897230;29;20511;-67
2022/06/15 00:30:41;;;;;;;0.45;0.45;;;14.50;99.90;;;;;;4897700;29;20124;-67
2022/06/15 00:33:07;;;;;;;0.52;0.40;;;14.40;99.90;;;;;;4909008;29;20052;-67
2022/06/15 00:35:33;;;;;;;0.73;0.32;;;14.40;99.90;;;;;;4916196;29;20052;-67
2022/06/15 00:37:58;;;;;;;0.13;0.13;;;14.40;99.90;;;;;;4912220;29;20060;-67
2022/06/15 00:40:24;;;;;;;0.30;0.30;;;14.40;99.90;;;;;;4907871;29;20071;-67
2022/06/15 00:42:49;;;;;;;1.55;1.27;;;14.30;99.90;;;;;;4901325;29;20111;-67
2022/06/15 00:45:15;;;;;;;0.20;0.20;;;14.30;99.90;;;;;;4914891;29;20048;-67
2022/06/15 00:47:43;;;;;;;0.75;0.60;;;14.30;99.90;;;;;;4916549;29;20106;-67
2022/06/15 00:50:19;;;;;;;0.30;0.30;;;14.30;99.90;;;;;;4909659;29;20044;-67
2022/06/15 00:53:05;;;;;;;0.80;0.50;;;14.30;99.90;;;;;;4915532;29;20489;-67
2022/06/15 00:55:33;;;;;;;0.47;0.47;;;14.30;99.90;;;;;;4904797;29;20056;-67
2022/06/15 00:58:02;;;;;;;0.10;0.10;;;14.20;99.90;;;;;;4892623;29;20051;-67
2022/06/15 01:00:29;;;;;;;3.42;1.08;;;14.20;99.90;;;;;;4896925;29;20603;-67
2022/06/15 01:02:54;;;;;;;0.30;0.30;;;14.20;99.90;;;;;;4911760;29;20076;-67
2022/06/15 01:05:25;;;;;;;0.10;0.10;;;14.20;99.90;;;;;;4902356;29;20087;-67
2022/06/15 01:08:19;;;;;;;0.30;0.30;;;14.20;99.90;;;;;;4896310;29;20505;-67
2022/06/15 01:11:28;;;;;;;0.25;0.25;;;14.20;99.90;;;;;;4894724;29;20052;-67
2022/06/15 01:14:08;;;;;;;0.40;0.40;;;14.20;99.90;;;;;;4900768;29;20051;-67
2022/06/15 01:17:08;;;;;;;0.20;0.20;;;14.20;99.90;;;;;;4915884;29;20052;-67
2022/06/15 01:19:58;;;;;;;0.57;0.57;;;14.20;99.90;;;;;;4911320;29;20052;-67
2022/06/15 01:22:50;;;;;;;0.25;0.25;;;14.10;99.90;;;;;;4910934;29;20048;-67
2022/06/15 01:25:21;;;;;;;0.98;0.55;;;14.10;99.90;;;;;;4913839;29;20056;-67
2022/06/15 01:28:13;;;;;;;0.10;0.10;;;14.10;99.90;;;;;;4914835;29;20055;-67
2022/06/15 01:31:04;;;;;;;0.03;0.03;;;14.10;99.90;;;;;;4896395;29;20056;-67
2022/06/15 01:33:51;;;;;;;4.18;1.98;;;14.10;99.90;;;;;;4896479;29;20516;-67
2022/06/15 01:36:26;;;;;;;1.08;0.60;;;14.10;99.90;;;;;;4896648;29;20100;-67
2022/06/15 01:39:23;;;;;;;0.10;0.10;;;14.00;99.90;;;;;;4902742;29;20127;-67
2022/06/15 01:42:03;;;;;;;0.10;0.10;;;14.00;99.90;;;;;;4896899;29;20048;-67
2022/06/15 01:44:32;;;;;;;0.20;0.15;;;14.00;99.90;;;;;;4904087;29;20062;-67
2022/06/15 01:47:04;;;;;;;0.17;0.17;;;14.00;99.90;;;;;;4909317;29;20045;-66
2022/06/15 01:49:57;;;;;;;0.50;0.50;;;14.00;99.90;;;;;;4896528;29;20057;-67
2022/06/15 01:52:27;;;;;;;0.10;0.10;;;13.90;99.90;;;;;;4896713;29;20049;-66
2022/06/15 01:55:03;;;;;;;1.55;0.30;;;13.90;99.90;;;;;;4896781;29;20386;-67
2022/06/15 01:57:30;;;;;;;0.55;0.55;;;13.90;99.90;;;;;;4901417;29;20048;-67
2022/06/15 02:00:06;;;;;;;0.38;0.38;;;13.90;99.90;;;;;;4914427;29;20048;-67
2022/06/15 02:02:44;;;;;;;0.95;0.95;;;13.90;99.90;;;;;;4914957;29;20047;-67
2022/06/15 02:05:21;;;;;;;0.68;0.68;;;13.80;99.90;;;;;;4914948;29;20052;-67
2022/06/15 02:08:09;;;;;;;4.05;2.03;;;13.80;99.90;;;;;;4901351;29;20076;-67
2022/06/15 02:10:42;;;;;;;0.30;0.30;;;13.80;99.90;;;;;;4896044;29;20528;-67
2022/06/15 02:13:22;;;;;;;0.55;0.55;;;13.80;99.90;;;;;;4894793;29;20519;-67
2022/06/15 02:15:52;;;;;;;0.20;0.20;;;13.80;99.90;;;;;;4896829;29;20059;-66
2022/06/15 02:18:19;;;;;;;1.38;1.20;;;13.80;99.90;;;;;;4895570;29;20495;-67
2022/06/15 02:20:50;;;;;;;0.68;0.68;;;13.70;99.90;;;;;;4895437;29;20053;-67
2022/06/15 02:23:18;;;;;;;0.10;0.10;;;13.70;99.90;;;;;;4896789;29;20051;-67
2022/06/15 02:25:51;;;;;;;0.43;0.43;;;13.60;99.90;;;;;;4895868;29;20064;-67
2022/06/15 02:28:18;;;;;;;0.22;0.22;;;13.60;99.90;;;;;;4895099;29;20056;-67
2022/06/15 02:30:44;;;;;;;0.52;0.52;;;13.50;99.90;;;;;;4908770;29;20100;-67
2022/06/15 02:33:12;;;;;;;0.20;0.20;;;13.60;99.90;;;;;;4913944;29;20067;-67
2022/06/15 02:35:39;;;;;;;0.10;0.10;;;13.50;99.90;;;;;;4914122;29;20524;-67
2022/06/15 02:38:05;;;;;;;0.10;0.10;;;13.50;99.90;;;;;;4910047;29;20044;-67
2022/06/15 02:40:31;;;;;;;0.63;0.55;;;13.50;99.90;;;;;;4899881;29;20112;-67
2022/06/15 02:43:00;;;;;;;0.20;0.20;;;13.50;99.90;;;;;;4893787;29;20056;-67
2022/06/15 02:45:31;;;;;;;3.25;0.88;;;13.40;99.90;;;;;;4894518;29;20048;-67
2022/06/15 02:47:57;;;;;;;0.25;0.25;;;13.40;99.90;;;;;;4913878;29;20491;-67
2022/06/15 02:50:27;;;;;;;0.93;0.93;;;13.40;99.90;;;;;;4913714;29;20459;-67
2022/06/15 02:52:59;;;;;;;0.43;0.35;;;13.40;99.90;;;;;;4900004;29;20056;-67
2022/06/15 02:55:26;;;;;;;0.20;0.20;;;13.40;99.90;;;;;;4894451;29;20072;-67
2022/06/15 02:58:03;;;;;;;0.70;0.65;;;13.40;99.90;;;;;;4900394;29;20131;-67
2022/06/15 03:00:29;;;;;;;0.52;0.47;;;13.40;99.90;;;;;;4914172;29;20040;-67
2022/06/15 03:02:54;;;;;;;0.82;0.43;;;13.40;99.90;;;;;;4912237;29;20048;-67
2022/06/15 03:05:20;;;;;;;1.13;0.88;;;13.40;99.90;;;;;;4912769;29;20526;-67
2022/06/15 03:07:45;;;;;;;1.13;0.65;;;13.40;99.90;;;;;;4901723;29;20051;-67
2022/06/15 03:10:11;;;;;;;0.75;0.63;;;13.40;99.90;;;;;;4894325;29;20055;-67
2022/06/15 03:12:37;;;;;;;1.92;0.55;;;13.40;99.90;;;;;;4895215;29;20472;-67
2022/06/15 03:15:03;;;;;;;0.47;0.47;;;13.40;99.90;;;;;;4904000;29;20044;-67
2022/06/15 03:17:28;;;;;;;0.10;0.10;;;13.40;99.90;;;;;;4911515;29;20090;-67
2022/06/15 03:19:54;;;;;;;0.40;0.40;;;13.40;99.90;;;;;;4909913;29;20072;-67
2022/06/15 03:22:20;;;;;;;1.15;1.05;;;13.30;99.90;;;;;;4913383;29;20052;-67
2022/06/15 03:24:45;;;;;;;0.63;0.63;;;13.30;99.90;;;;;;4910340;29;20052;-67
2022/06/15 03:27:11;;;;;;;0.20;0.20;;;13.30;99.90;;;;;;4913672;29;20083;-67
2022/06/15 03:29:36;;;;;;;1.23;1.13;;;13.20;99.90;;;;;;4912795;29;20077;-67
2022/06/15 03:32:03;;;;;;;0.65;0.65;;;13.30;99.90;;;;;;4908475;29;20068;-67
2022/06/15 03:34:28;;;;;;;0.03;0.03;;;13.20;99.90;;;;;;4915395;29;20127;-67
2022/06/15 03:36:54;;;;;;;0.30;0.15;;;13.20;99.90;;;;;;4918046;29;20115;-67
2022/06/15 03:39:20;;;;;;;0.70;0.70;;;13.20;99.90;;;;;;4916833;29;20090;-67
2022/06/15 03:41:45;;;;;;;1.20;0.65;;;13.20;99.90;;;;;;4899760;29;20052;-67
2022/06/15 03:44:11;;;;;;;0.10;0.10;;;13.20;99.90;;;;;;4897659;29;20409;-67
2022/06/15 03:46:37;;;;;;;0.35;0.35;;;13.10;99.90;;;;;;4914070;29;20047;-67
2022/06/15 03:49:03;;;;;;;0.10;0.10;;;13.10;99.90;;;;;;4911823;29;20076;-67
2022/06/15 03:51:29;;;;;;;0.10;0.10;;;13.10;99.90;;;;;;4898517;29;20079;-67
2022/06/15 03:53:54;;;;;;;0.50;0.50;;;13.10;99.90;;;;;;4897409;29;20099;-67
2022/06/15 03:56:20;;;;;;;0.20;0.20;;;13.10;99.90;;;;;;4913855;29;20112;-67
2022/06/15 03:58:46;;;;;;;0.55;0.45;;;13.10;99.90;;;;;;4916800;29;20104;-67
2022/06/15 04:01:12;;;;;;;0.17;0.17;;;13.10;99.90;;;;;;4914661;29;20110;-67
2022/06/15 04:03:38;;;;;;;0.50;0.50;;;13.10;99.90;;;;;;4897988;29;20056;-67
2022/06/15 04:06:04;;;;;;;0.45;0.45;;;13.10;99.90;;;;;;4896671;29;20041;-67
2022/06/15 04:08:42;;;;;;;0.10;0.10;;;13.10;99.90;;;;;;4900246;29;20044;-67
2022/06/15 04:13:58;;;;;;;0.45;0.45;;;13.20;99.90;;;;;;4899617;29;20473;-67
2022/06/15 04:16:24;;;;;;;0.38;0.38;;;13.20;99.90;;;;;;4904167;29;20508;-67
2022/06/15 04:18:50;;;;;;;1.13;1.02;;;13.20;99.90;;;;;;4896971;29;20060;-67
2022/06/15 04:21:15;;;;;;;0.57;0.57;;;13.30;99.90;;;;;;4908340;29;20048;-67
2022/06/15 04:23:41;;;;;;;2.92;1.48;;;13.30;99.90;;;;;;4915722;29;20052;-67
2022/06/15 04:26:06;;;;;;;0.85;0.85;;;13.30;99.90;;;;;;4912942;29;20052;-67
2022/06/15 04:28:35;;;;;;;0.15;0.15;;;13.30;99.90;;;;;;4915672;29;20063;-67
2022/06/15 04:31:01;;;;;;;0.15;0.15;;;13.30;99.90;;;;;;4916798;29;20624;-67
2022/06/15 04:33:28;;;;;;;0.10;0.10;;;13.40;99.90;;;;;;4911884;29;20127;-67
2022/06/15 04:35:54;;;;;;;0.10;0.10;;;13.40;99.90;;;;;;4897332;29;20049;-67
2022/06/15 04:38:20;;;;;;;0.20;0.20;;;13.40;99.90;;;;;;4897686;29;20059;-67
2022/06/15 04:40:45;;;;;;;0.40;0.40;;;13.40;99.90;;;;;;4897101;29;20073;-67
2022/06/15 04:43:11;;;;;;;0.45;0.43;;;13.50;99.90;;;;;;4897574;29;20052;-67
2022/06/15 04:45:37;;;;;;;0.10;0.10;;;13.50;99.90;;;;;;4896536;29;20048;-67
2022/06/15 04:48:03;;;;;;;0.40;0.40;;;13.60;99.90;;;;;;4904989;29;20215;-67
2022/06/15 04:50:29;;;;;;;0.22;0.22;;;13.70;99.90;;;;;;4916280;29;20063;-67
2022/06/15 04:52:55;;;;;;;0.85;0.82;;;13.70;99.90;;;;;;4916439;29;20066;-67
2022/06/15 04:55:22;;;;;;;0.43;0.43;;;13.70;99.90;;;;;;4914419;29;20044;-66
2022/06/15 04:57:53;;;;;;;0.10;0.10;;;13.70;99.90;;;;;;4914538;29;20063;-67
2022/06/15 05:00:19;;;;;;;1.98;0.43;;;13.80;99.90;;;;;;4897626;29;20048;-67
2022/06/15 05:02:45;;;;;;;0.30;0.30;;;13.80;99.90;;;;;;4897372;29;20037;-67
2022/06/15 05:05:11;;;;;;;0.28;0.28;;;13.90;99.90;;;;;;4896614;29;20060;-67
2022/06/15 05:07:37;;;;;;;0.50;0.50;;;13.90;99.90;;;;;;4912860;29;20051;-67
2022/06/15 05:10:04;;;;;;;0.22;0.22;;;14.00;99.90;;;;;;4911628;29;20123;-67
2022/06/15 05:12:29;;;;;;;0.70;0.63;;;14.10;99.90;;;;;;4916314;29;20056;-67
2022/06/15 05:14:55;;;;;;;0.00;0.00;;;14.20;99.90;;;;;;4915392;29;20377;-67
2022/06/15 05:17:23;;;;;;;0.43;0.30;;;14.20;99.90;;;;;;4915384;29;20050;-67
2022/06/15 05:19:49;;;;;;;0.05;0.05;;;14.20;99.90;;;;;;4904236;29;20052;-67
2022/06/15 05:22:15;;;;;;;0.80;0.80;;;14.30;99.90;;;;;;4895561;29;20390;-67
2022/06/15 05:24:41;;;;;;;0.10;0.10;;;14.40;99.90;;;;;;4896084;29;20049;-67
2022/06/15 05:27:07;;;;;;;0.85;0.70;;;14.50;99.90;;;;;;4896095;29;20048;-67
2022/06/15 05:29:36;;;;;;;0.00;0.00;;;14.50;99.90;;;;;;4896960;29;20056;-67
2022/06/15 05:32:03;;;;;;;0.10;0.10;;;14.50;99.90;;;;;;4895717;29;20068;-67
2022/06/15 05:34:29;;;;;;;0.00;0.00;;;14.60;99.90;;;;;;4900611;29;20404;-67
2022/06/15 05:36:54;;;;;;;0.10;0.10;;;14.60;99.90;;;;;;4915511;29;20054;-67
2022/06/15 05:39:20;;;;;;;0.15;0.15;;;14.70;99.90;;;;;;4910147;29;20055;-67
2022/06/15 05:41:49;;;;;;;0.05;0.05;;;14.80;99.90;;;;;;4897003;29;20080;-67
2022/06/15 05:46:58;;;;;;;0.05;0.05;;;14.90;99.90;;;;;;4897223;29;20089;-67
2022/06/15 05:49:24;;;;;;;0.10;0.10;;;15.00;99.90;;;;;;4897458;29;20513;-67
2022/06/15 05:51:50;;;;;;;0.10;0.10;;;15.00;99.90;;;;;;4893809;29;20060;-67
2022/06/15 05:54:16;;;;;;;0.10;0.10;;;15.00;99.90;;;;;;4896218;29;20056;-67
2022/06/15 05:56:41;;;;;;;0.32;0.32;;;15.10;99.90;;;;;;4896118;29;20076;-67
2022/06/15 05:59:07;;;;;;;0.03;0.03;;;15.20;99.90;;;;;;4894629;29;20452;-67
2022/06/15 06:01:35;;;;;;;0.00;0.00;;;15.20;99.90;;;;;;4909028;29;20171;-67
2022/06/15 06:04:01;;;;;;;0.10;0.10;;;15.30;99.90;;;;;;4895398;29;20439;-67
2022/06/15 06:06:28;;;;;;;0.10;0.10;;;15.30;99.90;;;;;;4893851;29;20051;-67
2022/06/15 06:08:54;;;;;;;0.10;0.10;;;15.30;99.90;;;;;;4896409;29;20060;-67
2022/06/15 06:11:21;;;;;;;0.10;0.10;;;15.40;99.90;;;;;;4897180;29;20140;-67
2022/06/15 06:13:47;;;;;;;0.85;0.85;;;15.40;99.90;;;;;;4898263;29;20075;-67
2022/06/15 06:16:13;;;;;;;0.10;0.10;;;15.50;99.90;;;;;;4912948;29;20072;-67
2022/06/15 06:18:39;;;;;;;0.45;0.25;;;15.60;99.90;;;;;;4896173;29;20076;-67
2022/06/15 06:21:05;;;;;;;0.00;0.00;;;15.60;99.90;;;;;;4893528;29;20138;-67
2022/06/15 06:23:32;;;;;;;0.70;0.70;;;15.70;99.90;;;;;;4896407;29;20850;-67
2022/06/15 06:25:57;;;;;;;0.10;0.10;;;15.80;99.90;;;;;;4894577;29;20485;-67
2022/06/15 06:28:27;;;;;;;0.13;0.13;;;15.80;99.90;;;;;;4895284;29;20053;-67
2022/06/15 06:30:53;;;;;;;0.03;0.03;;;15.90;99.90;;;;;;4894644;29;20047;-67
2022/06/15 06:33:19;;;;;;;0.10;0.10;;;16.00;99.90;;;;;;4893130;29;20060;-67
2022/06/15 06:35:45;;;;;;;0.00;0.00;;;16.10;99.90;;;;;;4896150;29;20048;-67
2022/06/15 06:38:12;;;;;;;0.10;0.10;;;16.20;99.90;;;;;;4896609;29;20047;-67
2022/06/15 06:40:38;;;;;;;0.08;0.08;;;16.20;99.90;;;;;;4895778;29;20613;-67
2022/06/15 06:43:04;;;;;;;0.10;0.10;;;16.30;99.90;;;;;;4894384;29;20084;-67
2022/06/15 06:45:29;;;;;;;0.00;0.00;;;16.30;99.90;;;;;;4895568;29;20136;-67
2022/06/15 06:47:56;;;;;;;0.10;0.10;;;16.30;99.90;;;;;;4894733;29;20044;-67
2022/06/15 06:50:23;;;;;;;0.00;0.00;;;16.30;99.90;;;;;;4893636;29;20048;-67
2022/06/15 06:52:49;;;;;;;0.15;0.15;;;16.30;99.90;;;;;;4895473;29;20051;-67
2022/06/15 06:55:15;;;;;;;0.10;0.10;;;16.40;99.90;;;;;;4893239;29;20063;-66
2022/06/15 06:57:40;;;;;;;0.00;0.00;;;16.50;99.90;;;;;;4895453;29;20067;-67
2022/06/15 07:00:07;;;;;;;0.00;0.00;;;16.50;99.90;;;;;;4893749;29;20053;-67
2022/06/15 07:02:33;;;;;;;0.30;0.30;;;16.60;99.90;;;;;;4893394;29;20049;-67
2022/06/15 07:04:58;;;;;;;0.00;0.00;;;16.70;99.90;;;;;;4899699;29;20043;-67
2022/06/15 07:07:24;;;;;;;0.10;0.10;;;16.80;99.90;;;;;;4914081;29;20059;-67
2022/06/15 07:09:49;;;;;;;0.00;0.00;;;16.80;99.90;;;;;;4913065;29;20056;-67
2022/06/15 07:12:15;;;;;;;0.00;0.00;;;16.80;99.90;;;;;;4898256;29;20045;-67
2022/06/15 07:14:40;;;;;;;0.00;0.00;;;16.90;99.90;;;;;;4904189;29;20051;-67
2022/06/15 07:17:06;;;;;;;2.80;0.52;;;16.90;99.90;;;;;;4912959;29;20087;-67
2022/06/15 07:19:31;;;;;;;0.03;0.03;;;16.80;99.90;;;;;;4898403;29;20404;-67
2022/06/15 07:21:57;;;;;;;0.20;0.20;;;16.80;99.90;;;;;;4893716;29;20044;-67
2022/06/15 07:24:22;;;;;;;0.00;0.00;;;16.70;99.90;;;;;;4894317;29;20045;-67
2022/06/15 07:26:48;;;;;;;1.00;0.25;;;16.60;99.90;;;;;;4892881;29;20052;-67
2022/06/15 07:29:21;;;;;;;0.00;0.00;;;16.60;99.90;;;;;;4893577;29;20161;-67
2022/06/15 07:31:49;;;;;;;0.00;0.00;;;16.70;99.90;;;;;;4893474;29;20044;-67
2022/06/15 07:34:15;;;;;;;0.47;0.47;;;16.80;99.90;;;;;;4895107;29;20304;-67
2022/06/15 07:36:49;;;;;;;0.00;0.00;;;16.90;99.90;;;;;;4893764;29;20058;-67
2022/06/15 07:39:22;;;;;;;0.73;0.73;;;17.00;99.90;;;;;;4899769;29;20889;-67
2022/06/15 07:41:49;;;;;;;0.03;0.03;;;17.10;99.90;;;;;;4910484;29;20050;-67
2022/06/15 07:44:17;;;;;;;0.00;0.00;;;17.20;99.90;;;;;;4911759;29;20157;-67
2022/06/15 07:46:42;;;;;;;0.00;0.00;;;17.30;99.90;;;;;;4913811;29;20087;-67
2022/06/15 07:51:56;;;;;;;0.00;0.00;;;17.40;99.90;;;;;;4906490;29;20052;-67
2022/06/15 07:54:22;;;;;;;0.10;0.10;;;17.50;99.90;;;;;;4913568;29;20059;-67
2022/06/15 07:56:50;;;;;;;0.10;0.10;;;17.50;99.90;;;;;;4911023;29;20051;-67
2022/06/15 07:59:16;;;;;;;0.00;0.00;;;17.60;99.90;;;;;;4911307;29;20055;-67
2022/06/15 08:01:43;;;;;;;0.10;0.10;;;17.60;99.90;;;;;;4913754;29;20044;-67
2022/06/15 08:04:09;;;;;;;0.00;0.00;;;17.70;99.90;;;;;;4909143;29;20040;-67
2022/06/15 08:06:37;;;;;;;0.00;0.00;;;17.70;99.90;;;;;;4913076;29;20044;-67
2022/06/15 08:09:04;;;;;;;0.10;0.10;;;17.80;99.90;;;;;;4907200;29;20566;-67
2022/06/15 08:11:30;;;;;;;0.38;0.38;;;17.90;99.90;;;;;;4908658;29;20061;-67
2022/06/15 08:13:56;;;;;;;0.00;0.00;;;17.90;99.90;;;;;;4897718;29;20078;-67
2022/06/15 08:16:22;;;;;;;0.00;0.00;;;18.00;99.90;;;;;;4912196;29;20036;-67
2022/06/15 08:18:53;;;;;;;1.20;1.00;;;18.00;99.90;;;;;;4907374;29;20044;-69
2022/06/15 08:21:26;;;;;;;0.57;0.57;;;18.10;99.90;;;;;;4914262;29;20087;-69
2022/06/15 08:23:55;;;;;;;0.15;0.15;;;18.10;99.90;;;;;;4917135;29;20055;-69
2022/06/15 08:26:25;;;;;;;0.88;0.85;;;18.10;99.90;;;;;;4910747;29;20051;-69
2022/06/15 08:28:54;;;;;;;0.00;0.00;;;18.20;99.90;;;;;;4898393;29;20136;-67
2022/06/15 08:31:20;;;;;;;0.00;0.00;;;18.20;99.90;;;;;;4896659;29;20056;-67
2022/06/15 08:33:45;;;;;;;0.10;0.10;;;18.30;99.90;;;;;;4900523;29;20102;-67
2022/06/15 08:36:12;;;;;;;0.00;0.00;;;18.40;99.90;;;;;;4916834;29;20044;-67
2022/06/15 08:38:39;;;;;;;0.00;0.00;;;18.40;99.90;;;;;;4916851;29;20043;-67
2022/06/15 08:41:11;;;;;;;0.00;0.00;;;18.50;99.90;;;;;;4915988;29;20511;-67
2022/06/15 08:44:10;;;;;;;0.00;0.00;;;18.50;99.90;;;;;;4904526;29;20049;-67
2022/06/15 08:47:02;;;;;;;0.00;0.00;;;18.60;99.90;;;;;;4898013;29;20051;-66
2022/06/15 08:49:42;;;;;;;1.55;1.45;;;18.50;99.90;;;;;;4899311;29;20054;-67
2022/06/15 08:52:16;;;;;;;0.10;0.10;;;18.60;99.90;;;;;;4897666;29;20500;-67
2022/06/15 08:54:45;;;;;;;0.00;0.00;;;18.60;99.90;;;;;;4910259;29;20056;-67
2022/06/15 08:57:17;;;;;;;0.10;0.10;;;18.50;99.90;;;;;;4916543;29;20036;-66
2022/06/15 08:59:50;;;;;;;0.00;0.00;;;18.50;99.90;;;;;;4916794;29;20059;-67
2022/06/15 09:02:40;;;;;;;0.10;0.10;;;18.60;99.90;;;;;;4902400;29;20041;-67
2022/06/15 09:05:18;;;;;;;0.00;0.00;;;18.70;99.90;;;;;;4896461;29;20057;-67
2022/06/15 09:08:12;;;;;;;0.00;0.00;;;18.80;99.90;;;;;;4897873;29;20052;-67
2022/06/15 09:11:01;;;;;;;0.10;0.10;;;18.70;99.90;;;;;;4910542;29;20063;-67
2022/06/15 09:14:20;;;;;;;0.00;0.00;;;18.90;99.90;;;;;;4916626;29;20048;-67
2022/06/15 09:16:53;;;;;;;0.10;0.10;;;19.00;99.90;;;;;;4895333;29;20080;-67
2022/06/15 09:19:26;;;;;;;0.00;0.00;;;19.30;99.90;;;;;;4915357;29;20192;-67
2022/06/15 09:21:57;;;;;;;0.10;0.10;;;19.30;99.90;;;;;;4914393;29;20040;-67
2022/06/15 09:24:48;;;;;;;0.32;0.25;;;19.40;99.90;;;;;;4896000;29;20052;-67
2022/06/15 09:27:39;;;;;;;0.00;0.00;;;19.30;99.90;;;;;;4896548;29;20048;-67
2022/06/15 09:30:11;;;;;;;0.00;0.00;;;19.30;99.90;;;;;;4895222;29;20056;-67
2022/06/15 09:32:46;;;;;;;0.10;0.10;;;19.40;99.90;;;;;;4914407;29;20060;-67
2022/06/15 09:35:16;;;;;;;0.32;0.22;;;19.50;99.90;;;;;;4908487;29;20049;-67
2022/06/15 09:37:46;;;;;;;0.00;0.00;;;19.60;99.90;;;;;;4895944;29;20405;-67
2022/06/15 09:40:12;;;;;;;0.00;0.00;;;19.80;99.90;;;;;;4909528;29;20056;-67
2022/06/15 09:42:54;;;;;;;0.00;0.00;;;20.00;99.90;;;;;;4915562;29;20089;-67
2022/06/15 09:45:46;;;;;;;0.50;0.30;;;20.20;99.90;;;;;;4912377;29;20504;-67
2022/06/15 09:48:47;;;;;;;0.30;0.30;;;20.60;99.90;;;;;;4906952;29;20067;-67
2022/06/15 09:51:31;;;;;;;0.05;0.05;;;21.10;99.90;;;;;;4913332;29;20515;-67
2022/06/15 09:54:06;;;;;;;0.30;0.30;;;21.40;99.90;;;;;;4911371;29;20044;-67
2022/06/15 09:56:33;;;;;;;0.00;0.00;;;21.80;99.90;;;;;;4895825;29;20136;-66
2022/06/15 09:59:12;;;;;;;3.20;1.48;;;21.60;99.90;;;;;;4910387;29;20044;-67
2022/06/15 10:01:42;;;;;;;0.20;0.20;;;21.60;99.90;;;;;;4915095;29;20151;-66
2022/06/15 10:04:23;;;;;;;0.00;0.00;;;21.70;99.90;;;;;;4913739;29;20107;-67
2022/06/15 10:06:59;;;;;;;0.00;0.00;;;21.90;99.90;;;;;;4911812;29;20056;-67
2022/06/15 10:09:29;;;;;;;0.35;0.35;;;21.70;99.90;;;;;;4915130;29;20076;-67
2022/06/15 10:12:55;;;;;;;0.00;0.00;;;21.60;99.90;;;;;;4913021;29;20489;-66
2022/06/15 10:14:49;;;;;;;0.00;0.00;;;21.80;99.90;;;;;;4901466;29;20061;-67
2022/06/15 10:17:31;;;;;;;2.65;0.55;;;22.20;99.90;;;;;;4895820;29;20382;-67
2022/06/15 10:19:58;;;;;;;0.20;0.20;;;22.20;99.90;;;;;;4895567;29;20060;-67
2022/06/15 10:22:29;;;;;;;0.00;0.00;;;22.30;99.90;;;;;;4896208;29;20405;-67
2022/06/15 10:24:58;;;;;;;0.98;0.28;;;22.30;99.90;;;;;;4914794;29;20048;-67
2022/06/15 10:27:29;;;;;;;0.03;0.03;;;22.60;99.90;;;;;;4912565;29;20131;-67
2022/06/15 10:30:02;;;;;;;0.08;0.08;;;22.60;99.90;;;;;;4906354;29;20048;-67
2022/06/15 10:32:30;;;;;;;0.10;0.10;;;22.60;99.90;;;;;;4893469;29;20064;-67
2022/06/15 10:35:07;;;;;;;1.08;0.70;;;22.70;99.90;;;;;;4895899;29;20068;-67
2022/06/15 10:37:39;;;;;;;0.10;0.10;;;22.60;99.90;;;;;;4912224;29;20139;-67
2022/06/15 10:40:49;;;;;;;0.40;0.40;;;22.40;99.90;;;;;;4913780;29;20080;-67
2022/06/15 10:43:20;;;;;;;0.10;0.10;;;21.90;99.90;;;;;;4858774;29;20129;-67
2022/06/15 10:46:05;;;;;;;0.15;0.15;;;21.60;99.90;;;;;;4898246;29;20053;-67
2022/06/15 10:48:43;;;;;;;0.17;0.17;;;21.40;99.90;;;;;;4894358;29;20560;-67
2022/06/15 10:51:16;;;;;;;0.30;0.30;;;21.20;99.90;;;;;;4895314;29;20050;-67
2022/06/15 10:53:52;;;;;;;0.00;0.00;;;21.00;99.90;;;;;;4891759;29;20105;-67
2022/06/15 11:02:24;;;;;;;0.05;0.05;;;20.80;99.90;;;;;;4909154;29;20114;-67
2022/06/15 11:04:51;;;;;;;0.05;0.05;;;20.70;99.90;;;;;;4913286;29;20063;-67
2022/06/15 11:07:26;;;;;;;0.00;0.00;;;20.60;99.90;;;;;;4906326;29;20124;-67
2022/06/15 11:09:54;;;;;;;0.35;0.22;;;20.60;99.90;;;;;;4893512;29;20052;-67
2022/06/15 11:12:37;;;;;;;0.00;0.00;;;20.70;99.90;;;;;;4903001;29;20129;-67
2022/06/15 11:18:01;;;;;;;0.43;0.17;;;21.20;99.90;;;;;;4911809;29;20062;-67
2022/06/15 11:18:41;;;;;;;0.10;0.10;;;21.60;99.90;;;;;;4910728;29;20496;-67
2022/06/15 11:21:31;;;;;;;0.28;0.20;;;22.20;99.90;;;;;;4913815;29;20048;-67
2022/06/15 11:24:05;;;;;;;0.15;0.15;;;22.50;99.90;;;;;;4913586;29;20392;-67
2022/06/15 11:26:55;;;;;;;1.35;0.22;;;22.20;99.90;;;;;;4914019;29;20040;-67
2022/06/15 11:29:33;;;;;;;0.00;0.00;;;21.90;99.90;;;;;;4910866;29;20048;-67
2022/06/15 11:32:23;;;;;;;0.00;0.00;;;22.10;99.90;;;;;;4913595;29;20040;-67
2022/06/15 11:35:19;;;;;;;0.00;0.00;;;22.60;99.90;;;;;;4909322;29;20595;-67
2022/06/15 11:37:51;;;;;;;0.10;0.10;;;23.00;99.90;;;;;;4912481;29;20048;-67
2022/06/15 11:40:42;;;;;;;0.00;0.00;;;22.60;99.90;;;;;;4899561;29;20072;-67
2022/06/15 11:43:26;;;;;;;0.20;0.20;;;22.40;99.90;;;;;;4893018;29;20091;-67
2022/06/15 11:46:06;;;;;;;0.00;0.00;;;22.70;99.90;;;;;;4895015;29;20484;-67
2022/06/15 11:48:57;;;;;;;0.03;0.03;;;23.30;99.90;;;;;;4900325;29;20083;-67
2022/06/15 11:52:04;;;;;;;0.10;0.10;;;22.90;99.90;;;;;;4911910;29;20400;-67
2022/06/15 11:54:33;;;;;;;0.05;0.05;;;22.30;99.90;;;;;;4912601;29;20060;-67
2022/06/15 11:57:10;;;;;;;0.00;0.00;;;22.70;99.90;;;;;;4914671;29;20056;-67
2022/06/15 12:00:03;;;;;;;0.10;0.10;;;23.10;99.90;;;;;;4915898;29;20492;-67
2022/06/15 12:03:07;;;;;;;0.20;0.20;;;23.30;99.90;;;;;;4914452;29;20128;-67
2022/06/15 12:05:44;;;;;;;0.20;0.20;;;23.50;99.90;;;;;;4915129;29;20123;-67
2022/06/15 12:08:35;;;;;;;0.00;0.00;;;23.50;99.90;;;;;;4907030;29;20048;-67
2022/06/15 12:14:36;;;;;;;0.00;0.00;;;23.40;99.90;;;;;;4896802;29;20052;-67
2022/06/15 12:17:29;;;;;;;0.10;0.10;;;22.70;99.90;;;;;;4897831;29;20489;-67
2022/06/15 12:20:12;;;;;;;0.00;0.00;;;22.30;99.90;;;;;;4897718;29;20048;-67
2022/06/15 12:23:06;;;;;;;0.17;0.17;;;22.20;99.90;;;;;;4895490;29;20401;-67
2022/06/15 12:25:32;;;;;;;0.10;0.10;;;22.80;99.90;;;;;;4897227;29;20060;-68
2022/06/15 12:28:11;;;;;;;0.00;0.00;;;23.20;99.90;;;;;;4897965;29;20558;-67
2022/06/15 12:31:07;;;;;;;0.00;0.00;;;23.70;99.90;;;;;;4897866;29;20068;-67
2022/06/15 12:33:46;;;;;;;0.00;0.00;;;23.80;99.90;;;;;;4896999;29;20064;-67
2022/06/15 12:36:25;;;;;;;0.00;0.00;;;24.10;99.90;;;;;;4897936;29;20083;-67
2022/06/15 12:39:34;;;;;;;0.05;0.05;;;24.30;99.90;;;;;;4899504;29;20044;-67
2022/06/15 12:42:09;;;;;;;0.00;0.00;;;24.30;99.90;;;;;;4876637;29;20080;-67
2022/06/15 12:45:13;;;;;;;0.10;0.10;;;24.60;99.40;;;;;;4874680;29;20049;-67
2022/06/15 12:47:40;;;;;;;0.25;0.25;;;24.60;99.00;;;;;;4906781;29;20059;-67
2022/06/15 12:50:26;;;;;;;0.10;0.10;;;24.70;99.90;;;;;;4896985;29;20548;-67
2022/06/15 12:53:14;;;;;;;0.10;0.10;;;25.00;99.90;;;;;;4898042;29;20063;-67
2022/06/15 12:55:45;;;;;;;0.05;0.05;;;24.50;98.20;;;;;;4897414;29;20068;-67
2022/06/15 12:58:29;;;;;;;0.45;0.45;;;24.60;99.40;;;;;;4897419;29;20056;-67
2022/06/15 13:00:58;;;;;;;0.00;0.00;;;25.10;99.90;;;;;;4895304;29;20060;-67
2022/06/15 13:03:41;;;;;;;0.00;0.00;;;25.30;99.20;;;;;;4904431;29;20143;-67
2022/06/15 13:06:33;;;;;;;1.08;0.45;;;25.10;98.80;;;;;;4914444;29;20087;-68
2022/06/15 13:09:11;;;;;;;0.13;0.13;;;24.70;99.60;;;;;;4915410;29;20052;-67
2022/06/15 13:11:59;;;;;;;0.25;0.25;;;25.20;99.50;;;;;;4907946;29;20189;-67
2022/06/15 13:14:38;;;;;;;0.00;0.00;;;25.50;98.50;;;;;;4902348;29;20056;-67
2022/06/15 13:17:13;;;;;;;0.55;0.15;;;25.50;98.10;;;;;;4900978;29;20074;-67
2022/06/15 13:19:44;;;;;;;0.00;0.00;;;25.60;97.70;;;;;;4897356;29;20075;-67
2022/06/15 13:22:18;;;;;;;0.20;0.13;;;25.70;97.10;;;;;;4894790;29;20053;-67
2022/06/15 13:24:55;;;;;;;0.10;0.10;;;25.70;97.90;;;;;;4899331;29;20052;-67
2022/06/15 13:27:27;;;;;;;0.00;0.00;;;25.80;97.60;;;;;;4915234;29;20179;-67
2022/06/15 13:30:09;;;;;;;0.10;0.10;;;25.60;96.00;;;;;;4914300;29;20527;-67
2022/06/15 13:32:48;;;;;;;0.00;0.00;;;26.10;96.90;;;;;;4913434;29;20404;-67
2022/06/15 13:35:45;;;;;;;0.13;0.13;;;26.00;96.50;;;;;;4915726;29;20336;-67